Main page
METAR-TAF:

METAR-TAF

Airports :

Ranong Airport

Ranong, Thailand

latitude: 09-59N, longitude: 098-37E, elevation: 7 m

Current weather observation

The report was made 2 hours and 31 minutes ago, at 18:00 UTC
Wind 4 kt from variable directions
Temperature 27°C
Humidity 74%
Pressure 1011 hPa
Visibility 10 km or more
Few clouds at a height of 2000 ft

METAR: VTSR 151800Z VRB04KT 9999 FEW020 27/22 Q1011 NOSIG

Time: 03:31 (20:31 UTC)

Forecast

The report was made 3 hours and 31 minutes ago, at 17:00 UTC
Forecast valid from 15 at 18 UTC to 16 at 18 UTC
Wind kt from the North
Visibility 10 km or more
Scattered clouds at a height of 2500 ft
Becoming
from 16 at 02 UTC to 16 at 04 UTC
Wind 6 kt from the Northwest

TAF: VTSR 151700Z 1518/1618 00000KT 9999 SCT025 BECMG 1602/1604 32006KT

Weather observations and forecasts of more than 4000 airports (METAR and TAF reports).

The available stations are represented by yellow and red dots on the map.

Hover mouse over dot to see the name of the station.

Then click to see weather observations and forecasts.

To change the map : click on the green buttons with a black cross to zoom in, on the green button with a dash to zoom out, or on the green arrows for adjacent maps.


METAR-TAF: